Time;durP1;ratioP1;P1;durP2;ratioP2;P2;SDS_P1;SDS_P2;PMS_P1;PMS_P2;Temp;Humidity;BMP_temperature;BMP_pressure;BME280_temperature;BME280_humidity;BME280_pressure;Samples;Min_cycle;Max_cycle;Signal;HPM_P1;HPM_P2
2021/01/29 00:02:07;;;;;;;10.90;5.50;;;;;11.80;99694.00;;;;5044281;28;20195;-75
2021/01/29 00:04:33;;;;;;;12.32;6.40;;;;;11.80;99686.00;;;;5030953;28;20227;-76
2021/01/29 00:07:00;;;;;;;10.68;5.63;;;;;11.80;99679.00;;;;5035209;28;20208;-75
2021/01/29 00:09:27;;;;;;;11.93;5.40;;;;;11.80;99671.00;;;;5038254;28;20204;-75
2021/01/29 00:11:53;;;;;;;12.15;6.47;;;;;11.80;99664.00;;;;5023803;28;20201;-75
2021/01/29 00:14:20;;;;;;;8.85;5.70;;;;;11.80;99655.00;;;;5039268;28;20582;-75
2021/01/29 00:16:48;;;;;;;13.65;6.07;;;;;11.80;99650.00;;;;5031748;28;20212;-75
2021/01/29 00:19:14;;;;;;;11.00;5.70;;;;;11.90;99646.00;;;;5030986;28;20215;-75
2021/01/29 00:21:41;;;;;;;11.15;5.72;;;;;11.90;99634.00;;;;5040503;28;20707;-75
2021/01/29 00:24:09;;;;;;;10.23;6.43;;;;;11.90;99622.00;;;;5036979;28;20200;-75
2021/01/29 00:26:35;;;;;;;13.73;6.10;;;;;11.90;99618.00;;;;5035440;28;20576;-76
2021/01/29 00:29:02;;;;;;;9.52;5.38;;;;;11.90;99600.00;;;;5037510;28;20604;-75
2021/01/29 00:31:29;;;;;;;10.48;5.65;;;;;11.90;99596.00;;;;5034902;28;20216;-75
2021/01/29 00:33:57;;;;;;;9.88;5.75;;;;;11.90;99583.00;;;;5044132;28;20195;-75
2021/01/29 00:36:24;;;;;;;8.85;5.50;;;;;11.90;99581.00;;;;5044219;28;20734;-76
2021/01/29 00:38:50;;;;;;;10.88;5.45;;;;;12.00;99570.00;;;;5040926;28;20192;-76
2021/01/29 00:41:21;;;;;;;9.02;5.57;;;;;12.00;99571.00;;;;5031931;28;20205;-76
2021/01/29 00:43:47;;;;;;;8.10;4.70;;;;;12.00;99566.00;;;;5039126;28;20204;-76
2021/01/29 00:46:14;;;;;;;9.73;5.25;;;;;12.00;99554.00;;;;5030773;28;20201;-75
2021/01/29 00:48:41;;;;;;;10.63;5.38;;;;;12.00;99541.00;;;;5030313;28;20204;-76
2021/01/29 00:51:08;;;;;;;9.95;5.88;;;;;12.00;99545.00;;;;5047614;28;20705;-76
2021/01/29 00:53:35;;;;;;;9.85;5.05;;;;;12.00;99544.00;;;;5029611;28;20224;-76
2021/01/29 00:56:02;;;;;;;9.55;5.85;;;;;12.00;99537.00;;;;5035563;28;20612;-76
2021/01/29 00:58:29;;;;;;;9.77;4.82;;;;;12.00;99533.00;;;;5033356;28;20215;-75
2021/01/29 01:00:55;;;;;;;11.88;5.50;;;;;12.00;99536.00;;;;5029559;28;20623;-76
2021/01/29 01:03:22;;;;;;;11.65;5.75;;;;;12.00;99526.00;;;;5045195;28;20334;-75
2021/01/29 01:05:49;;;;;;;10.18;5.82;;;;;12.00;99517.00;;;;5046052;28;20193;-75
2021/01/29 01:08:16;;;;;;;10.80;6.10;;;;;12.00;99511.00;;;;5036029;28;20203;-76
2021/01/29 01:10:43;;;;;;;9.05;5.28;;;;;12.00;99509.00;;;;5044550;28;20266;-76
2021/01/29 01:13:10;;;;;;;9.75;6.07;;;;;12.10;99503.00;;;;5026087;28;20215;-75
2021/01/29 01:15:36;;;;;;;9.02;5.07;;;;;12.00;99501.00;;;;5038650;28;20200;-76
2021/01/29 01:18:06;;;;;;;10.07;6.40;;;;;12.00;99497.00;;;;5031579;28;20654;-76
2021/01/29 01:20:33;;;;;;;11.48;5.35;;;;;12.10;99498.00;;;;5041912;28;20214;-76
2021/01/29 01:23:00;;;;;;;10.00;4.80;;;;;12.10;99499.00;;;;5035650;28;20201;-76
2021/01/29 01:25:28;;;;;;;11.60;5.43;;;;;12.10;99476.00;;;;5034144;28;20200;-75
2021/01/29 01:27:56;;;;;;;9.82;4.75;;;;;12.10;99482.00;;;;5046477;28;20679;-76
2021/01/29 01:30:29;;;;;;;11.50;6.40;;;;;12.10;99474.00;;;;5049316;28;20258;-76
2021/01/29 01:32:56;;;;;;;11.88;6.78;;;;;12.10;99471.00;;;;5045365;28;20653;-75
2021/01/29 01:35:24;;;;;;;9.82;4.70;;;;;12.10;99457.00;;;;5041260;28;20195;-76
2021/01/29 01:37:52;;;;;;;10.07;5.05;;;;;12.10;99457.00;;;;5040785;28;20193;-75
2021/01/29 01:40:21;;;;;;;8.27;5.07;;;;;12.10;99448.00;;;;5034634;28;20195;-75
2021/01/29 01:42:48;;;;;;;8.40;4.55;;;;;12.20;99446.00;;;;5040969;28;20199;-76
2021/01/29 01:45:49;;;;;;;7.57;4.50;;;;;12.10;99425.00;;;;5042298;28;20257;-76
2021/01/29 01:48:22;;;;;;;6.68;4.07;;;;;12.20;99431.00;;;;5018584;28;20204;-76
2021/01/29 01:50:49;;;;;;;6.15;4.35;;;;;12.20;99419.00;;;;5041697;28;20227;-75
2021/01/29 01:53:22;;;;;;;7.22;4.18;;;;;12.10;99413.00;;;;5037140;28;20604;-75
2021/01/29 01:55:54;;;;;;;6.22;3.67;;;;;12.10;99404.00;;;;5009140;28;20193;-76
2021/01/29 01:58:21;;;;;;;6.95;4.15;;;;;12.20;99399.00;;;;5008787;28;20212;-75
2021/01/29 02:00:48;;;;;;;5.65;3.13;;;;;12.20;99394.00;;;;5008602;28;20275;-75
2021/01/29 02:03:19;;;;;;;6.57;4.35;;;;;12.20;99389.00;;;;5021581;28;20204;-76
2021/01/29 02:05:46;;;;;;;7.80;4.93;;;;;12.20;99382.00;;;;5008768;28;20213;-76
2021/01/29 02:08:16;;;;;;;6.00;3.55;;;;;12.20;99374.00;;;;5022578;28;20196;-76
2021/01/29 02:10:43;;;;;;;6.97;3.75;;;;;12.20;99364.00;;;;5027683;28;20705;-76
2021/01/29 02:13:10;;;;;;;5.93;3.60;;;;;12.20;99360.00;;;;5025757;28;20199;-76
2021/01/29 02:15:42;;;;;;;7.22;4.45;;;;;12.20;99342.00;;;;5017507;28;20196;-76
2021/01/29 02:18:20;;;;;;;7.22;4.20;;;;;12.20;99339.00;;;;5008872;28;20196;-76
2021/01/29 02:21:23;;;;;;;7.43;4.35;;;;;12.10;99337.00;;;;5026865;28;20195;-76
2021/01/29 02:24:34;;;;;;;4.95;3.42;;;;;12.20;99326.00;;;;5010907;28;20204;-76
2021/01/29 02:27:33;;;;;;;7.07;3.60;;;;;12.10;99310.00;;;;5018645;28;20270;-76
2021/01/29 02:30:20;;;;;;;5.57;3.47;;;;;12.20;99304.00;;;;5009378;28;20312;-76
2021/01/29 02:33:24;;;;;;;4.30;3.08;;;;;12.20;99296.00;;;;5014665;28;20618;-76
2021/01/29 02:36:13;;;;;;;5.43;3.38;;;;;12.20;99288.00;;;;5025372;28;20201;-76
2021/01/29 02:39:02;;;;;;;4.85;3.28;;;;;12.30;99274.00;;;;5004586;28;20193;-76
2021/01/29 02:41:46;;;;;;;6.50;3.63;;;;;12.30;99270.00;;;;4989118;28;20209;-76
2021/01/29 02:44:23;;;;;;;5.30;3.08;;;;;12.40;99258.00;;;;5006831;28;20193;-76
2021/01/29 02:46:53;;;;;;;4.88;3.35;;;;;12.40;99254.00;;;;5028324;28;20206;-76
2021/01/29 02:49:27;;;;;;;5.63;3.55;;;;;12.40;99246.00;;;;5023923;28;20205;-76
2021/01/29 02:52:01;;;;;;;5.57;3.72;;;;;12.40;99237.00;;;;5013030;28;20322;-76
2021/01/29 02:54:38;;;;;;;5.45;3.33;;;;;12.40;99226.00;;;;5027378;28;20842;-76
2021/01/29 02:57:10;;;;;;;5.88;3.92;;;;;12.40;99224.00;;;;5017520;28;20199;-76
2021/01/29 02:59:40;;;;;;;5.60;3.72;;;;;12.50;99209.00;;;;5027645;28;20204;-76
2021/01/29 03:02:13;;;;;;;6.47;3.83;;;;;12.50;99195.00;;;;5013208;28;20204;-76
2021/01/29 03:04:48;;;;;;;6.32;3.63;;;;;12.50;99190.00;;;;4988846;28;20194;-76
2021/01/29 03:07:21;;;;;;;4.30;2.60;;;;;12.50;99190.00;;;;5012456;28;20204;-76
2021/01/29 03:09:55;;;;;;;5.70;3.47;;;;;12.50;99180.00;;;;5026822;28;20235;-76
2021/01/29 03:12:25;;;;;;;4.97;3.08;;;;;12.60;99177.00;;;;5009530;28;20212;-76
2021/01/29 03:14:58;;;;;;;5.13;3.00;;;;;12.60;99167.00;;;;5008260;28;20251;-76
2021/01/29 03:17:29;;;;;;;4.70;2.92;;;;;12.60;99158.00;;;;5022381;28;20200;-76
2021/01/29 03:20:03;;;;;;;6.43;3.83;;;;;12.60;99152.00;;;;5016677;28;20201;-76
2021/01/29 03:22:35;;;;;;;5.03;3.03;;;;;12.60;99143.00;;;;5015261;28;20871;-77
2021/01/29 03:25:08;;;;;;;4.68;3.35;;;;;12.70;99138.00;;;;5027999;28;20199;-76
2021/01/29 03:27:40;;;;;;;3.88;2.92;;;;;12.70;99136.00;;;;5030351;28;20196;-76
2021/01/29 03:30:12;;;;;;;5.63;3.70;;;;;12.70;99125.00;;;;5026340;28;20228;-76
2021/01/29 03:32:41;;;;;;;5.18;3.92;;;;;12.80;99118.00;;;;5025209;28;20193;-76
2021/01/29 03:35:12;;;;;;;5.50;3.88;;;;;12.80;99120.00;;;;5022585;28;20251;-76
2021/01/29 03:37:43;;;;;;;8.07;4.10;;;;;12.80;99110.00;;;;5022507;28;20207;-76
2021/01/29 03:40:11;;;;;;;5.97;3.72;;;;;12.80;99107.00;;;;5025591;28;20211;-76
2021/01/29 03:42:47;;;;;;;5.05;3.17;;;;;12.80;99092.00;;;;5027318;28;20193;-76
2021/01/29 03:45:20;;;;;;;5.60;3.70;;;;;12.80;99090.00;;;;5016426;28;20200;-76
2021/01/29 03:47:58;;;;;;;6.47;3.72;;;;;12.90;99092.00;;;;5012018;28;20205;-76
2021/01/29 03:50:39;;;;;;;6.30;3.70;;;;;12.90;99085.00;;;;5022338;28;20569;-76
2021/01/29 03:53:26;;;;;;;7.20;3.75;;;;;12.90;99071.00;;;;5021766;28;20232;-76
2021/01/29 03:56:02;;;;;;;4.82;3.25;;;;;12.90;99071.00;;;;5017135;28;20193;-76
2021/01/29 03:58:36;;;;;;;5.03;3.22;;;;;12.90;99064.00;;;;5028606;28;20210;-76
2021/01/29 04:01:11;;;;;;;6.00;3.50;;;;;13.00;99063.00;;;;5015320;28;20208;-76
2021/01/29 04:03:41;;;;;;;7.15;3.80;;;;;13.00;99057.00;;;;5013376;28;20206;-76
2021/01/29 04:06:12;;;;;;;5.10;3.38;;;;;13.00;99042.00;;;;5015760;28;20615;-76
2021/01/29 04:08:46;;;;;;;7.05;4.25;;;;;13.00;99031.00;;;;5011695;28;20259;-76
2021/01/29 04:11:19;;;;;;;5.63;3.75;;;;;13.00;99026.00;;;;5011093;28;20229;-76
2021/01/29 04:13:50;;;;;;;4.82;3.33;;;;;13.10;99016.00;;;;5021146;28;20220;-76
2021/01/29 04:16:21;;;;;;;5.28;3.42;;;;;13.10;99014.00;;;;5014545;28;20192;-76
2021/01/29 04:18:53;;;;;;;4.97;3.55;;;;;13.10;99005.00;;;;5031351;28;20200;-76
2021/01/29 04:21:25;;;;;;;4.68;3.28;;;;;13.10;99001.00;;;;5026478;28;20270;-76
2021/01/29 04:23:59;;;;;;;4.60;3.22;;;;;13.20;98994.00;;;;5023325;28;20689;-76
2021/01/29 04:26:30;;;;;;;5.03;3.55;;;;;13.20;98993.00;;;;5017455;28;20192;-77
2021/01/29 04:29:01;;;;;;;4.07;3.05;;;;;13.20;98983.00;;;;5030148;28;20211;-77
2021/01/29 04:31:29;;;;;;;4.05;2.72;;;;;13.20;98984.00;;;;5022294;28;20221;-77
2021/01/29 04:34:01;;;;;;;4.97;3.40;;;;;13.30;98979.00;;;;5023958;28;20223;-76
2021/01/29 04:36:33;;;;;;;4.50;2.88;;;;;13.30;98984.00;;;;5024103;28;20199;-77
2021/01/29 04:39:06;;;;;;;4.10;2.95;;;;;13.30;98983.00;;;;5018388;28;20201;-77
2021/01/29 04:41:58;;;;;;;4.22;2.97;;;;;13.30;98980.00;;;;5010559;28;20648;-77
2021/01/29 04:45:05;;;;;;;4.05;2.83;;;;;13.30;98971.00;;;;5010719;28;20205;-77
2021/01/29 04:47:41;;;;;;;4.10;2.85;;;;;13.40;98967.00;;;;5020374;28;20187;-77
2021/01/29 04:50:17;;;;;;;3.83;3.13;;;;;13.40;98971.00;;;;5028848;28;20196;-77
2021/01/29 04:53:08;;;;;;;4.72;3.08;;;;;13.40;98968.00;;;;5006548;28;20203;-77
2021/01/29 04:55:44;;;;;;;4.70;2.88;;;;;13.50;98972.00;;;;5020947;28;20291;-77
2021/01/29 04:58:14;;;;;;;4.22;3.33;;;;;13.50;98966.00;;;;5028665;28;20207;-77
2021/01/29 05:01:22;;;;;;;4.68;3.38;;;;;13.50;98963.00;;;;5025497;28;21646;-76
2021/01/29 05:04:12;;;;;;;3.53;2.33;;;;;13.50;98959.00;;;;5021346;28;20735;-76
2021/01/29 05:07:18;;;;;;;4.63;3.42;;;;;13.50;98959.00;;;;5007321;28;20201;-77
2021/01/29 05:10:13;;;;;;;3.55;2.33;;;;;13.60;98965.00;;;;5004152;28;20207;-77
2021/01/29 05:13:15;;;;;;;4.63;3.13;;;;;13.60;98964.00;;;;5009358;28;20594;-76
2021/01/29 05:16:00;;;;;;;4.45;3.50;;;;;13.60;98968.00;;;;5017215;28;20201;-77
2021/01/29 05:18:56;;;;;;;2.92;2.42;;;;;13.60;98968.00;;;;5020719;28;20200;-77
2021/01/29 05:22:00;;;;;;;4.28;3.03;;;;;13.60;98968.00;;;;5026536;28;20254;-77
2021/01/29 05:25:08;;;;;;;3.25;2.40;;;;;13.70;98963.00;;;;4979488;28;20698;-77
2021/01/29 05:28:09;;;;;;;3.20;2.20;;;;;13.70;98962.00;;;;5010265;28;20252;-76
2021/01/29 05:30:52;;;;;;;3.30;2.22;;;;;13.80;98960.00;;;;4982262;28;20224;-77
2021/01/29 05:33:35;;;;;;;4.00;2.75;;;;;13.80;98954.00;;;;5026456;28;20200;-77
2021/01/29 05:36:27;;;;;;;4.15;2.10;;;;;13.90;98952.00;;;;5015792;28;20215;-77
2021/01/29 05:39:24;;;;;;;2.83;2.15;;;;;13.90;98959.00;;;;5022211;28;20207;-77
2021/01/29 05:42:08;;;;;;;3.97;2.67;;;;;14.00;98954.00;;;;4971898;28;20205;-77
2021/01/29 05:44:53;;;;;;;2.92;2.15;;;;;14.00;98952.00;;;;4994337;28;20220;-77
2021/01/29 05:47:53;;;;;;;2.25;1.85;;;;;14.10;98954.00;;;;5002411;28;20270;-77
2021/01/29 05:50:36;;;;;;;2.25;1.85;;;;;14.10;98955.00;;;;5010888;28;20205;-77
2021/01/29 05:53:13;;;;;;;2.47;1.50;;;;;14.20;98956.00;;;;5013984;28;20593;-77
2021/01/29 05:55:47;;;;;;;2.38;1.73;;;;;14.20;98951.00;;;;5020949;28;20208;-76
2021/01/29 05:58:37;;;;;;;2.95;1.70;;;;;14.20;98952.00;;;;5027694;28;20197;-77
2021/01/29 06:01:53;;;;;;;2.30;1.65;;;;;14.20;98955.00;;;;5025698;28;20764;-77
2021/01/29 06:04:52;;;;;;;1.73;1.40;;;;;14.20;98959.00;;;;5013268;28;20205;-77
2021/01/29 06:07:47;;;;;;;1.90;1.33;;;;;14.20;98958.00;;;;5029114;28;20200;-77
2021/01/29 06:10:52;;;;;;;1.63;1.23;;;;;14.20;98959.00;;;;5028463;28;20204;-77
2021/01/29 06:13:51;;;;;;;1.80;1.10;;;;;14.20;98958.00;;;;5008761;28;20200;-77
2021/01/29 06:16:48;;;;;;;1.00;0.70;;;;;14.20;98960.00;;;;5020711;28;20200;-77
2021/01/29 06:19:54;;;;;;;1.63;0.98;;;;;14.30;98954.00;;;;5006727;28;20192;-77
2021/01/29 06:22:57;;;;;;;1.25;0.93;;;;;14.20;98962.00;;;;5023549;28;20283;-77
2021/01/29 06:25:59;;;;;;;1.60;0.65;;;;;14.20;98971.00;;;;5012060;28;20650;-77
2021/01/29 06:28:55;;;;;;;1.30;0.68;;;;;14.30;98961.00;;;;5021072;28;20290;-76
2021/01/29 06:31:58;;;;;;;1.70;0.80;;;;;14.30;98968.00;;;;5027105;28;20295;-79
2021/01/29 06:34:41;;;;;;;1.58;0.63;;;;;14.30;98962.00;;;;5028123;28;20204;-78
2021/01/29 06:37:19;;;;;;;1.65;0.70;;;;;14.30;98964.00;;;;5025673;28;20200;-78
2021/01/29 06:39:56;;;;;;;1.05;0.70;;;;;14.30;98955.00;;;;5028497;28;20630;-78
2021/01/29 06:42:45;;;;;;;2.30;0.65;;;;;14.30;98957.00;;;;5012249;28;20262;-79
2021/01/29 06:45:25;;;;;;;1.48;0.60;;;;;14.30;98965.00;;;;5027933;28;20212;-78
2021/01/29 06:48:09;;;;;;;0.93;0.55;;;;;14.30;98965.00;;;;5028068;28;20291;-78
2021/01/29 06:50:55;;;;;;;2.03;0.50;;;;;14.30;98959.00;;;;5025853;28;20215;-78
2021/01/29 06:53:42;;;;;;;3.50;0.88;;;;;14.30;98969.00;;;;5027085;28;20286;-78
2021/01/29 06:56:44;;;;;;;1.63;0.75;;;;;14.30;98973.00;;;;5000411;28;20192;-78
2021/01/29 06:59:41;;;;;;;1.10;0.45;;;;;14.20;98977.00;;;;5012325;28;20205;-79
2021/01/29 07:02:36;;;;;;;1.08;0.57;;;;;14.20;98983.00;;;;5025442;28;20619;-79
2021/01/29 07:05:25;;;;;;;2.17;0.80;;;;;14.30;98982.00;;;;4993292;28;20204;-78
2021/01/29 07:08:07;;;;;;;4.55;0.60;;;;;14.30;98976.00;;;;5028050;28;20204;-79
2021/01/29 07:10:52;;;;;;;4.32;1.15;;;;;14.20;98988.00;;;;5031077;28;20228;-78
2021/01/29 07:13:43;;;;;;;4.25;0.75;;;;;14.20;98987.00;;;;5022015;28;20197;-79
2021/01/29 07:16:36;;;;;;;1.17;0.40;;;;;14.30;98987.00;;;;4991200;28;20662;-78
2021/01/29 07:19:24;;;;;;;0.80;0.30;;;;;14.20;98991.00;;;;5016543;28;20223;-79
2021/01/29 07:22:28;;;;;;;1.38;0.45;;;;;14.20;98998.00;;;;5024121;28;20200;-77
2021/01/29 07:25:05;;;;;;;3.50;0.40;;;;;14.30;99000.00;;;;5021226;28;20204;-77
2021/01/29 07:27:45;;;;;;;0.93;0.13;;;;;14.20;99001.00;;;;5011787;28;20211;-77
2021/01/29 07:30:42;;;;;;;0.77;0.25;;;;;14.20;99007.00;;;;5023304;28;20616;-78
2021/01/29 07:33:21;;;;;;;0.75;0.10;;;;;14.30;99012.00;;;;5004017;28;20263;-77
2021/01/29 07:36:02;;;;;;;0.73;0.45;;;;;14.30;99011.00;;;;5022153;28;20197;-77
2021/01/29 07:38:58;;;;;;;1.02;0.30;;;;;14.30;99019.00;;;;5023084;28;20192;-77
2021/01/29 07:41:47;;;;;;;1.00;0.68;;;;;14.30;99016.00;;;;5008899;28;20196;-76
2021/01/29 07:44:27;;;;;;;3.75;1.20;;;;;14.30;99027.00;;;;5028838;28;20196;-76
2021/01/29 07:47:18;;;;;;;4.35;0.70;;;;;14.20;99033.00;;;;5011496;28;20209;-76
2021/01/29 07:49:54;;;;;;;2.75;1.13;;;;;14.30;99034.00;;;;5019298;28;20208;-77
2021/01/29 07:52:36;;;;;;;2.42;0.98;;;;;14.30;99036.00;;;;5031159;28;20227;-76
2021/01/29 07:55:10;;;;;;;4.53;1.05;;;;;14.30;99033.00;;;;5021112;28;20205;-78
2021/01/29 07:58:15;;;;;;;3.47;0.98;;;;;14.20;99042.00;;;;5024144;28;20196;-77
2021/01/29 08:00:56;;;;;;;1.15;0.60;;;;;14.30;99048.00;;;;5025586;28;20332;-76
2021/01/29 08:04:13;;;;;;;5.25;1.02;;;;;14.30;99062.00;;;;5010660;28;20205;-77
2021/01/29 08:06:47;;;;;;;3.08;1.20;;;;;14.30;99053.00;;;;4949923;28;20208;-77
2021/01/29 08:09:22;;;;;;;6.15;1.10;;;;;14.30;99068.00;;;;4931162;29;20720;-76
2021/01/29 08:11:53;;;;;;;6.25;1.38;;;;;14.30;99061.00;;;;4963407;28;20572;-78
2021/01/29 08:14:42;;;;;;;9.40;1.48;;;;;14.30;99081.00;;;;5011482;28;20667;-77
2021/01/29 08:17:19;;;;;;;8.63;1.13;;;;;14.30;99079.00;;;;4991918;28;20205;-78
2021/01/29 08:19:57;;;;;;;4.45;1.40;;;;;14.30;99078.00;;;;5001683;28;20233;-77
2021/01/29 08:22:39;;;;;;;6.25;1.35;;;;;14.30;99088.00;;;;5011459;28;20208;-78
2021/01/29 08:25:52;;;;;;;10.48;1.65;;;;;14.20;99104.00;;;;5011162;28;20207;-78
2021/01/29 08:29:03;;;;;;;3.60;0.95;;;;;14.20;99096.00;;;;4983799;28;20208;-78
2021/01/29 08:31:56;;;;;;;2.78;0.82;;;;;14.20;99104.00;;;;5020235;28;20282;-78
2021/01/29 08:35:00;;;;;;;9.05;1.38;;;;;14.20;99107.00;;;;5002520;28;20196;-80
2021/01/29 08:37:41;;;;;;;6.32;1.33;;;;;14.20;99113.00;;;;4963762;28;20211;-78
2021/01/29 08:40:22;;;;;;;4.45;1.02;;;;;14.10;99114.00;;;;5013737;28;20211;-78
2021/01/29 08:43:09;;;;;;;6.70;1.83;;;;;14.20;99116.00;;;;5007894;28;20193;-77
2021/01/29 08:45:48;;;;;;;4.07;0.80;;;;;14.20;99127.00;;;;5012496;28;20205;-77
2021/01/29 08:48:29;;;;;;;5.25;1.42;;;;;14.20;99127.00;;;;5029947;28;20697;-78
2021/01/29 08:51:07;;;;;;;14.40;2.15;;;;;14.20;99123.00;;;;5027180;28;20236;-77
2021/01/29 08:54:11;;;;;;;9.77;1.98;;;;;14.10;99124.00;;;;5000249;28;20229;-77
2021/01/29 08:56:46;;;;;;;3.72;1.02;;;;;14.20;99142.00;;;;5002870;28;20201;-76
2021/01/29 08:59:17;;;;;;;8.00;1.52;;;;;14.20;99126.00;;;;5009996;28;20213;-76
2021/01/29 09:01:49;;;;;;;4.93;1.65;;;;;14.20;99137.00;;;;5017384;28;20196;-75
2021/01/29 09:04:24;;;;;;;8.23;1.63;;;;;14.20;99144.00;;;;5013828;28;20636;-75
2021/01/29 09:06:55;;;;;;;12.48;2.10;;;;;14.20;99152.00;;;;5008951;28;20200;-76
2021/01/29 09:09:25;;;;;;;12.90;1.92;;;;;14.20;99149.00;;;;5021613;28;20200;-75
2021/01/29 09:11:54;;;;;;;9.70;1.60;;;;;14.20;99154.00;;;;5009015;28;20233;-76
2021/01/29 09:14:31;;;;;;;13.20;2.33;;;;;14.20;99153.00;;;;5019288;28;20712;-75
2021/01/29 09:17:02;;;;;;;11.52;2.67;;;;;14.20;99155.00;;;;5028350;28;20619;-75
2021/01/29 09:19:29;;;;;;;10.30;1.60;;;;;14.20;99158.00;;;;5028288;28;20199;-76
2021/01/29 09:22:09;;;;;;;9.30;1.70;;;;;14.20;99160.00;;;;5016401;28;20211;-76
2021/01/29 09:24:42;;;;;;;8.23;1.40;;;;;14.20;99166.00;;;;4990421;28;20208;-75
2021/01/29 09:27:46;;;;;;;8.75;2.05;;;;;14.10;99173.00;;;;4996475;28;20200;-75
2021/01/29 09:30:21;;;;;;;11.85;2.10;;;;;14.20;99165.00;;;;5027840;28;20204;-76
2021/01/29 09:32:56;;;;;;;10.40;1.67;;;;;14.20;99174.00;;;;5027066;28;20226;-75
2021/01/29 09:35:31;;;;;;;12.35;2.00;;;;;14.20;99177.00;;;;5029618;28;20673;-75
2021/01/29 09:38:02;;;;;;;15.55;2.50;;;;;14.30;99180.00;;;;5013900;28;20197;-75
2021/01/29 09:40:33;;;;;;;12.73;2.20;;;;;14.30;99177.00;;;;5017296;28;20201;-74
2021/01/29 09:43:12;;;;;;;10.10;1.75;;;;;14.30;99185.00;;;;5012065;28;20250;-74
2021/01/29 09:45:40;;;;;;;15.35;1.98;;;;;14.30;99183.00;;;;5012256;28;20200;-75
2021/01/29 09:48:11;;;;;;;8.45;2.15;;;;;14.30;99189.00;;;;5009730;28;20683;-75
2021/01/29 09:50:39;;;;;;;13.43;2.22;;;;;14.40;99196.00;;;;5018485;28;20207;-74
2021/01/29 09:53:22;;;;;;;9.80;1.77;;;;;14.30;99200.00;;;;5013556;28;20240;-75
2021/01/29 09:56:02;;;;;;;10.85;2.47;;;;;14.30;99202.00;;;;5021462;28;20200;-75
2021/01/29 09:58:36;;;;;;;8.48;1.63;;;;;14.40;99209.00;;;;5022684;28;20674;-74
2021/01/29 10:01:07;;;;;;;13.95;1.98;;;;;14.40;99202.00;;;;5018122;28;20372;-75
2021/01/29 10:03:40;;;;;;;8.57;1.73;;;;;14.40;99207.00;;;;5020485;28;20193;-75
2021/01/29 10:06:12;;;;;;;14.05;2.42;;;;;14.50;99212.00;;;;5009615;28;20193;-74
2021/01/29 10:08:43;;;;;;;10.30;2.05;;;;;14.50;99218.00;;;;5009120;28;20197;-75
2021/01/29 10:11:19;;;;;;;10.55;1.77;;;;;14.50;99217.00;;;;5009464;28;20295;-74
2021/01/29 10:14:06;;;;;;;12.30;2.35;;;;;14.50;99224.00;;;;5008894;28;20192;-75
2021/01/29 10:16:51;;;;;;;9.98;1.85;;;;;14.50;99225.00;;;;5009179;28;20228;-75
2021/01/29 10:19:35;;;;;;;12.05;2.00;;;;;14.60;99228.00;;;;5005465;28;20205;-75
2021/01/29 10:22:38;;;;;;;10.25;2.22;;;;;14.60;99229.00;;;;5020538;28;20683;-74
2021/01/29 10:25:18;;;;;;;7.25;1.73;;;;;14.60;99228.00;;;;5008969;28;20588;-76
2021/01/29 10:27:50;;;;;;;8.88;2.05;;;;;14.70;99224.00;;;;5024738;28;20717;-75
2021/01/29 10:30:32;;;;;;;15.07;1.98;;;;;14.70;99229.00;;;;5025841;28;20196;-75
2021/01/29 10:33:05;;;;;;;12.02;1.88;;;;;14.80;99216.00;;;;5010586;28;20196;-76
2021/01/29 10:35:38;;;;;;;9.60;1.80;;;;;14.80;99227.00;;;;5016167;28;20200;-76
2021/01/29 10:38:10;;;;;;;8.93;1.67;;;;;14.90;99232.00;;;;5011124;28;20209;-79
2021/01/29 10:40:40;;;;;;;10.38;2.28;;;;;14.90;99233.00;;;;5010171;28;20197;-78
2021/01/29 10:43:16;;;;;;;12.88;2.22;;;;;15.00;99230.00;;;;5010295;28;20196;-77
2021/01/29 10:46:09;;;;;;;9.68;1.50;;;;;15.00;99246.00;;;;5008835;28;20258;-78
2021/01/29 10:48:57;;;;;;;12.23;2.38;;;;;15.10;99238.00;;;;5009416;28;20200;-77
2021/01/29 10:51:55;;;;;;;9.85;1.63;;;;;15.10;99238.00;;;;5023431;28;20235;-77
2021/01/29 10:54:24;;;;;;;9.27;1.50;;;;;15.20;99245.00;;;;4977616;28;20233;-77
2021/01/29 10:57:03;;;;;;;10.95;2.25;;;;;15.30;99242.00;;;;5017838;28;20193;-76
2021/01/29 10:59:39;;;;;;;8.93;1.58;;;;;15.30;99235.00;;;;5008509;28;20189;-76
2021/01/29 11:02:11;;;;;;;9.30;1.95;;;;;15.40;99233.00;;;;5011992;28;20219;-77
2021/01/29 11:04:41;;;;;;;7.78;1.60;;;;;15.50;99240.00;;;;5013150;28;20312;-77
2021/01/29 11:07:18;;;;;;;6.53;1.63;;;;;15.50;99251.00;;;;5006763;28;20247;-77
2021/01/29 11:09:55;;;;;;;6.82;1.50;;;;;15.60;99254.00;;;;5007221;28;20200;-75
2021/01/29 11:12:30;;;;;;;11.77;2.30;;;;;15.60;99249.00;;;;5007528;28;20228;-75
2021/01/29 11:15:00;;;;;;;9.15;2.03;;;;;15.70;99256.00;;;;5004659;28;20304;-76
2021/01/29 11:17:33;;;;;;;14.48;1.75;;;;;15.70;99277.00;;;;5007518;28;20232;-76
2021/01/29 11:20:09;;;;;;;4.97;1.25;;;;;15.70;99263.00;;;;5011058;28;20220;-78
2021/01/29 11:22:56;;;;;;;6.20;1.90;;;;;15.60;99248.00;;;;5012757;28;20200;-77
2021/01/29 11:25:49;;;;;;;8.82;1.77;;;;;15.60;99257.00;;;;5016819;28;20246;-77
2021/01/29 11:28:39;;;;;;;8.55;1.80;;;;;15.70;99262.00;;;;5018367;28;20200;-75
2021/01/29 11:31:11;;;;;;;7.10;1.10;;;;;15.70;99273.00;;;;5027878;28;20215;-76
2021/01/29 11:33:41;;;;;;;10.93;1.77;;;;;15.80;99270.00;;;;5026278;28;20192;-76
2021/01/29 11:36:20;;;;;;;9.35;1.83;;;;;15.80;99283.00;;;;5013799;28;20212;-79
2021/01/29 11:39:14;;;;;;;8.73;1.85;;;;;15.70;99279.00;;;;5010200;28;20204;-77
2021/01/29 11:41:51;;;;;;;7.07;1.85;;;;;15.80;99276.00;;;;5021013;28;20197;-78
2021/01/29 11:44:27;;;;;;;4.88;1.30;;;;;15.80;99284.00;;;;5014877;28;20597;-76
2021/01/29 11:47:01;;;;;;;8.15;1.40;;;;;15.70;99281.00;;;;5028258;28;20200;-76
2021/01/29 11:49:32;;;;;;;7.72;1.48;;;;;15.80;99283.00;;;;5023796;28;20690;-77
2021/01/29 11:52:10;;;;;;;6.80;1.50;;;;;15.70;99284.00;;;;5011755;28;20232;-76
2021/01/29 11:54:45;;;;;;;7.00;1.30;;;;;15.70;99286.00;;;;5023850;28;20863;-76
2021/01/29 11:57:18;;;;;;;5.82;1.40;;;;;15.70;99283.00;;;;5020926;28;20196;-76
2021/01/29 11:59:52;;;;;;;8.77;1.98;;;;;15.70;99283.00;;;;5018753;28;20196;-76
2021/01/29 12:02:33;;;;;;;6.40;1.10;;;;;15.70;99290.00;;;;5025840;28;20184;-77
2021/01/29 12:05:17;;;;;;;4.70;1.25;;;;;15.70;99281.00;;;;5021067;28;20192;-76
2021/01/29 12:07:50;;;;;;;5.50;1.42;;;;;15.80;99283.00;;;;5012938;28;20258;-75
2021/01/29 12:10:24;;;;;;;8.48;1.80;;;;;15.80;99284.00;;;;5027206;28;20197;-76
2021/01/29 12:12:55;;;;;;;8.20;1.55;;;;;15.80;99287.00;;;;5016818;28;20221;-76
2021/01/29 12:15:28;;;;;;;4.55;1.63;;;;;15.80;99298.00;;;;4998861;28;20205;-76
2021/01/29 12:17:58;;;;;;;4.32;1.10;;;;;15.90;99287.00;;;;5015162;28;20604;-75
2021/01/29 12:20:28;;;;;;;9.98;0.98;;;;;15.90;99287.00;;;;5028844;28;20736;-76
2021/01/29 12:23:06;;;;;;;7.28;0.90;;;;;15.80;99289.00;;;;5021400;28;20636;-76
2021/01/29 12:25:44;;;;;;;5.78;1.42;;;;;15.80;99280.00;;;;5020945;28;20291;-76
2021/01/29 12:28:27;;;;;;;7.13;1.27;;;;;15.70;99286.00;;;;5011200;28;20197;-77
2021/01/29 12:31:17;;;;;;;3.58;0.88;;;;;15.70;99283.00;;;;5019628;28;20192;-77
2021/01/29 12:33:51;;;;;;;7.88;1.98;;;;;15.70;99284.00;;;;5010244;28;20205;-76
2021/01/29 12:36:20;;;;;;;7.80;1.20;;;;;15.70;99275.00;;;;5011659;28;20208;-77
2021/01/29 12:38:56;;;;;;;4.43;1.23;;;;;15.60;99281.00;;;;5016562;28;20189;-76
2021/01/29 12:41:40;;;;;;;9.93;0.88;;;;;15.60;99274.00;;;;5018580;28;20600;-77
2021/01/29 12:44:27;;;;;;;10.18;1.85;;;;;15.50;99282.00;;;;5014598;28;20196;-78
2021/01/29 12:47:00;;;;;;;4.28;1.30;;;;;15.40;99277.00;;;;5011112;28;20193;-77
2021/01/29 12:49:36;;;;;;;7.13;1.85;;;;;15.40;99281.00;;;;5010803;28;20204;-75
2021/01/29 12:52:08;;;;;;;6.85;1.48;;;;;15.30;99284.00;;;;5014773;28;20287;-77
2021/01/29 12:54:42;;;;;;;4.95;1.10;;;;;15.20;99282.00;;;;5026522;28;20247;-77
2021/01/29 12:57:14;;;;;;;7.15;1.10;;;;;15.20;99286.00;;;;5029979;28;20211;-77
2021/01/29 12:59:48;;;;;;;6.38;1.13;;;;;15.20;99278.00;;;;5030137;28;20251;-78
2021/01/29 13:03:02;;;;;;;4.30;1.40;;;;;15.10;99274.00;;;;5030286;28;20210;-77
2021/01/29 13:05:51;;;;;;;4.57;1.15;;;;;15.10;99280.00;;;;5029956;28;20200;-77
2021/01/29 13:08:37;;;;;;;5.45;1.25;;;;;15.10;99273.00;;;;5021516;28;20201;-77
2021/01/29 13:11:11;;;;;;;4.72;1.35;;;;;15.20;99270.00;;;;5010300;28;20209;-78
2021/01/29 13:13:52;;;;;;;8.55;1.25;;;;;15.20;99269.00;;;;5010439;28;20201;-78
2021/01/29 13:16:24;;;;;;;6.05;1.58;;;;;15.30;99268.00;;;;5009662;28;20712;-77